^^
Saratoga-Weather Station Historical Data
Daily Summary for July 21, 2020 Units:  English    Metric   Both
Daily Weekly Monthly Yearly Custom
  High: Low: Average:
Temperature: 77.5 °F 58.8 °F 65.3 °F
Dew Point: 53.2 °F 42.6 °F 49.5 °F
Humidity: 68% 30% 58%
Wind Speed: 8.9mph 0mph 2.4mph
Wind Gust: 11mph - -
Wind- - SW
Pressure: 30.2 in 30.1 in -
Precipitation: 0 in    
Historical Graphs
 
 
Tabular Data for July 21, 2020
Time Temperature Dew Point Pressure Wind Wind Speed Wind Gust Humidity Rainfall Rate (Hourly) solar
00:04 65.7 °F 53.2 °F 30.1 in NW 2 mph 5 mph 64% 0 in 0 W/m2
00:10 65.7 °F 53.2 °F 30.1 in NNE 2.9 mph 4 mph 64% 0 in 0 W/m2
00:15 65.7 °F 53.2 °F 30.1 in WNW 2.9 mph 4 mph 64% 0 in 0 W/m2
00:20 65.5 °F 52.5 °F 30.1 in SE 2 mph 9 mph 63% 0 in 0 W/m2
00:25 65.5 °F 52.5 °F 30.1 in NW 2 mph 4 mph 63% 0 in 0 W/m2
00:30 65.5 °F 52.5 °F 30.1 in NW 0.9 mph 9 mph 63% 0 in 0 W/m2
00:35 65.3 °F 52 °F 30.1 in WNW 2 mph 6 mph 62% 0 in 0 W/m2
00:40 65.3 °F 52 °F 30.1 in WNW 2.9 mph 8 mph 62% 0 in 0 W/m2
00:45 65.1 °F 51.8 °F 30.1 in West 2.9 mph 6 mph 62% 0 in 0 W/m2
00:50 65.1 °F 51.8 °F 30.1 in WNW 2 mph 8 mph 62% 0 in 0 W/m2
00:55 65.1 °F 51.8 °F 30.1 in NNW 2 mph 3 mph 62% 0 in 0 W/m2
01:00 64.9 °F 51.6 °F 30.1 in WSW 0.9 mph 4 mph 62% 0 in 0 W/m2
01:05 64.9 °F 51.6 °F 30.1 in NW 0.9 mph 4 mph 62% 0 in 0 W/m2
01:10 64.9 °F 51.6 °F 30.1 in WNW 0.9 mph 7 mph 62% 0 in 0 W/m2
01:15 64.9 °F 51.6 °F 30.1 in West 2 mph 4 mph 62% 0 in 0 W/m2
01:20 64.9 °F 51.6 °F 30.1 in NNW 2.9 mph 6 mph 62% 0 in 0 W/m2
01:25 64.9 °F 51.1 °F 30.1 in West 4 mph 6 mph 61% 0 in 0 W/m2
01:30 64.9 °F 51.1 °F 30.1 in WNW 2 mph 4 mph 61% 0 in 0 W/m2
01:35 64.9 °F 51.6 °F 30.1 in WNW 2 mph 9 mph 62% 0 in 0 W/m2
01:40 64.8 °F 51.4 °F 30.1 in WSW 2.9 mph 3 mph 62% 0 in 0 W/m2
01:45 64.6 °F 51.6 °F 30.1 in NNW 4 mph 9 mph 63% 0 in 0 W/m2
01:50 64.4 °F 51.6 °F 30.1 in ENE 2.9 mph 3 mph 63% 0 in 0 W/m2
01:55 64.2 °F 51.4 °F 30.1 in NNW 0.9 mph 4 mph 63% 0 in 0 W/m2
02:00 64 °F 51.3 °F 30.1 in SW 2 mph 7 mph 63% 0 in 0 W/m2
02:05 63.9 °F 51.1 °F 30.1 in NNW 0.9 mph 3 mph 63% 0 in 0 W/m2
02:10 63.9 °F 51.1 °F 30.1 in NNE 2 mph 7 mph 63% 0 in 0 W/m2
02:15 63.7 °F 50.9 °F 30.1 in North 2.9 mph 3 mph 63% 0 in 0 W/m2
02:20 63.5 °F 50.7 °F 30.1 in WNW 2 mph 7 mph 63% 0 in 0 W/m2
02:30 63.1 °F 50.4 °F 30.1 in NNW 0.9 mph 7 mph 63% 0 in 0 W/m2
02:35 63 °F 49.8 °F 30.1 in WSW 2 mph 3 mph 62% 0 in 0 W/m2
02:40 63 °F 50.2 °F 30.1 in ESE 0.9 mph 4 mph 63% 0 in 0 W/m2
02:45 62.8 °F 49.6 °F 30.1 in NW 2 mph 4 mph 62% 0 in 0 W/m2
02:50 62.4 °F 49.6 °F 30.1 in WNW 2 mph 3 mph 63% 0 in 0 W/m2
02:55 62.4 °F 49.6 °F 30.1 in North 0.9 mph 2 mph 63% 0 in 0 W/m2
03:00 62.2 °F 49.5 °F 30.1 in Calm   2 mph 63% 0 in 0 W/m2
03:05 62.1 °F 49.3 °F 30.1 in WNW 2 mph 3 mph 63% 0 in 0 W/m2
03:10 61.7 °F 48.9 °F 30.1 in West 2 mph 4 mph 63% 0 in 0 W/m2
03:15 61.5 °F 48.7 °F 30.1 in NNW 0.9 mph 5 mph 63% 0 in 0 W/m2
03:20 61.3 °F 48.6 °F 30.1 in WNW 0.9 mph 2 mph 63% 0 in 0 W/m2
03:25 61.3 °F 48.6 °F 30.1 in WSW 4 mph 4 mph 63% 0 in 0 W/m2
03:36 61 °F 48.7 °F 30.1 in ENE 0.9 mph 4 mph 64% 0 in 0 W/m2
03:41 60.6 °F 48.4 °F 30.1 in West 2.9 mph 6 mph 64% 0 in 0 W/m2
03:46 60.6 °F 48.4 °F 30.1 in NNW 0.9 mph 3 mph 64% 0 in 0 W/m2
03:51 60.4 °F 48.2 °F 30.1 in West 2 mph 3 mph 64% 0 in 0 W/m2
03:56 60.3 °F 48 °F 30.1 in WSW 2.9 mph 4 mph 64% 0 in 0 W/m2
04:01 60.3 °F 48 °F 30.1 in WNW 2 mph 2 mph 64% 0 in 0 W/m2
04:06 60.1 °F 47.8 °F 30.1 in NW 2 mph 6 mph 64% 0 in 0 W/m2
04:11 60.1 °F 47.8 °F 30.1 in West 2 mph 4 mph 64% 0 in 0 W/m2
04:16 59.9 °F 47.7 °F 30.1 in Calm   4 mph 64% 0 in 0 W/m2
04:21 59.7 °F 47.5 °F 30.1 in West 4 mph 8 mph 64% 0 in 0 W/m2
04:26 59.5 °F 47.3 °F 30.1 in WSW 4 mph 4 mph 64% 0 in 0 W/m2
04:31 59.5 °F 47.3 °F 30.1 in NNW 0.9 mph 7 mph 64% 0 in 0 W/m2
04:36 59.4 °F 47.1 °F 30.1 in NNW 0.9 mph 3 mph 64% 0 in 0 W/m2
04:41 59.4 °F 47.7 °F 30.1 in WSW 2.9 mph 7 mph 65% 0 in 0 W/m2
04:46 59.2 °F 47.5 °F 30.1 in NW 0.9 mph 4 mph 65% 0 in 0 W/m2
04:51 59.2 °F 47.5 °F 30.1 in WSW 2.9 mph 7 mph 65% 0 in 0 W/m2
04:56 59 °F 47.3 °F 30.1 in WNW 2 mph 3 mph 65% 0 in 0 W/m2
05:01 59 °F 47.3 °F 30.1 in WSW 2 mph 3 mph 65% 0 in 0 W/m2
05:06 58.8 °F 47.1 °F 30.1 in WNW 2 mph 7 mph 65% 0 in 0 W/m2
05:11 58.8 °F 47.1 °F 30.1 in NE 0.9 mph 8 mph 65% 0 in 0 W/m2
05:16 58.8 °F 47.1 °F 30.1 in North 2.9 mph 5 mph 65% 0 in 0 W/m2
05:21 59 °F 47.3 °F 30.1 in West 4 mph 4 mph 65% 0 in 0 W/m2
05:26 59.2 °F 47.5 °F 30.1 in NW 2.9 mph 6 mph 65% 0 in 0 W/m2
05:31 59.4 °F 47.7 °F 30.1 in WNW 2.9 mph 6 mph 65% 0 in 0 W/m2
05:36 59.4 °F 47.7 °F 30.1 in WNW 2.9 mph 4 mph 65% 0 in 0 W/m2
05:41 59.4 °F 47.7 °F 30.1 in NW 2 mph 6 mph 65% 0 in 0 W/m2
05:46 59.4 °F 47.7 °F 30.1 in North 0.9 mph 3 mph 65% 0 in 0 W/m2
05:51 59.5 °F 47.8 °F 30.1 in WNW 0.9 mph 5 mph 65% 0 in 0 W/m2
05:56 59.4 °F 47.7 °F 30.1 in WNW 2 mph 3 mph 65% 0 in 0 W/m2
06:01 59.4 °F 47.7 °F 30.1 in WNW 4 mph 4 mph 65% 0 in 0 W/m2
06:06 59.4 °F 47.7 °F 30.1 in South 4.9 mph 5 mph 65% 0 in 5 W/m2
06:11 59.4 °F 47.7 °F 30.1 in Calm   2 mph 65% 0 in 7 W/m2
06:16 59.4 °F 47.7 °F 30.1 in NNW 2.9 mph 7 mph 65% 0 in 9 W/m2
06:21 59.2 °F 47.5 °F 30.1 in SW 0.9 mph 2 mph 65% 0 in 12 W/m2
06:26 59.2 °F 47.8 °F 30.1 in NW 0.9 mph 3 mph 66% 0 in 16 W/m2
06:31 59.2 °F 47.8 °F 30.1 in NNW 2 mph 4 mph 66% 0 in 21 W/m2
06:36 59.2 °F 47.8 °F 30.1 in WNW 4 mph 9 mph 66% 0 in 26 W/m2
06:41 59 °F 47.7 °F 30.1 in WNW 0.9 mph 5 mph 66% 0 in 32 W/m2
06:46 58.8 °F 47.8 °F 30.1 in NNW 4 mph 9 mph 67% 0 in 39 W/m2
06:51 58.8 °F 47.8 °F 30.1 in SW 0.9 mph 2 mph 67% 0 in 46 W/m2
06:56 58.8 °F 47.8 °F 30.1 in NW 0.9 mph 2 mph 67% 0 in 53 W/m2
07:01 58.8 °F 47.8 °F 30.1 in Calm   2 mph 67% 0 in 58 W/m2
07:06 58.8 °F 47.8 °F 30.1 in Calm   8 mph 67% 0 in 54 W/m2
07:11 58.8 °F 47.8 °F 30.1 in NNW 0.9 mph 5 mph 67% 0 in 46 W/m2
07:16 58.8 °F 47.8 °F 30.1 in North 2 mph 4 mph 67% 0 in 39 W/m2
07:21 58.8 °F 48.2 °F 30.1 in NW 2 mph 5 mph 68% 0 in 40 W/m2
07:26 58.8 °F 48.2 °F 30.1 in NW 2 mph 4 mph 68% 0 in 39 W/m2
07:31 58.8 °F 48.2 °F 30.1 in SSE 0.9 mph 5 mph 68% 0 in 39 W/m2
07:36 58.8 °F 48.2 °F 30.1 in WNW 2 mph 7 mph 68% 0 in 39 W/m2
07:41 59 °F 48.4 °F 30.1 in WNW 2.9 mph 6 mph 68% 0 in 39 W/m2
07:46 59.2 °F 48.6 °F 30.1 in East 2 mph 2 mph 68% 0 in 40 W/m2
07:51 59.2 °F 48.6 °F 30.1 in NNW 8.1 mph 8 mph 68% 0 in 40 W/m2
07:56 59.5 °F 48.9 °F 30.1 in NW 2.9 mph 6 mph 68% 0 in 165 W/m2
08:01 59.7 °F 49.1 °F 30.1 in NW 2.9 mph 4 mph 68% 0 in 229 W/m2
08:06 60.1 °F 49.1 °F 30.1 in NW 0.9 mph 6 mph 67% 0 in 244 W/m2
08:11 60.3 °F 49.3 °F 30.1 in NNW 0.9 mph 2 mph 67% 0 in 258 W/m2
08:16 60.8 °F 49.8 °F 30.2 in NNW 0.9 mph 6 mph 67% 0 in 271 W/m2
08:21 61 °F 49.5 °F 30.2 in ENE 2.9 mph 4 mph 66% 0 in 287 W/m2
08:26 61.2 °F 49.6 °F 30.2 in NNW 4 mph 6 mph 66% 0 in 239 W/m2
08:31 61.3 °F 49.8 °F 30.2 in North 2.9 mph 3 mph 66% 0 in 97 W/m2
08:42 61.9 °F 50 °F 30.2 in NE 4 mph 5 mph 65% 0 in 51 W/m2
08:47 62.4 °F 50 °F 30.2 in NNE 2 mph 6 mph 64% 0 in 51 W/m2
08:52 63.1 °F 50.7 °F 30.2 in WNW 6.9 mph 7 mph 64% 0 in 51 W/m2
08:57 63 °F 50.5 °F 30.2 in NW 8.9 mph 9 mph 64% 0 in 51 W/m2
09:02 63 °F 50.5 °F 30.2 in West 4 mph 7 mph 64% 0 in 51 W/m2
09:07 63.1 °F 51.3 °F 30.2 in East 0.9 mph 2 mph 65% 0 in 53 W/m2
09:12 63.9 °F 51.1 °F 30.2 in NNW 0.9 mph 3 mph 63% 0 in 54 W/m2
09:17 64.2 °F 51.4 °F 30.2 in North 2 mph 6 mph 63% 0 in 127 W/m2
09:22 64.8 °F 51.4 °F 30.2 in East 2 mph 6 mph 62% 0 in 374 W/m2
09:27 65.1 °F 51.3 °F 30.2 in NW 0.9 mph 4 mph 61% 0 in 452 W/m2
09:32 65.5 °F 51.6 °F 30.2 in East 2.9 mph 3 mph 61% 0 in 464 W/m2
09:37 65.8 °F 51.6 °F 30.2 in NE 0.9 mph 4 mph 60% 0 in 496 W/m2
09:42 66 °F 51.3 °F 30.2 in NNW 0.9 mph 9 mph 59% 0 in 508 W/m2
09:47 66.4 °F 51.6 °F 30.2 in West 2.9 mph 5 mph 59% 0 in 522 W/m2
09:52 66.7 °F 52 °F 30.2 in NNE 2.9 mph 9 mph 59% 0 in 534 W/m2
09:57 66.9 °F 51.6 °F 30.2 in NNW 2 mph 11 mph 58% 0 in 548 W/m2
10:02 66.9 °F 52.2 °F 30.2 in ESE 2.9 mph 7 mph 59% 0 in 476 W/m2
10:08 66.9 °F 51.6 °F 30.2 in East 2 mph 9 mph 58% 0 in 65 W/m2
10:13 67.3 °F 52.5 °F 30.2 in NE 6 mph 6 mph 59% 0 in 146 W/m2
10:18 67.6 °F 52.3 °F 30.2 in ENE 0.9 mph 9 mph 58% 0 in 591 W/m2
10:23 67.8 °F 52 °F 30.2 in NW 4 mph 4 mph 57% 0 in 606 W/m2
10:28 68 °F 52.2 °F 30.2 in SE 2.9 mph 7 mph 57% 0 in 621 W/m2
10:33 68.5 °F 52.2 °F 30.2 in NW 2.9 mph 3 mph 56% 0 in 633 W/m2
10:38 69.1 °F 51.8 °F 30.2 in NE 2 mph 4 mph 54% 0 in 643 W/m2
10:43 69.3 °F 52 °F 30.2 in East 2 mph 3 mph 54% 0 in 657 W/m2
10:48 69.3 °F 51.4 °F 30.2 in South 2 mph 4 mph 53% 0 in 666 W/m2
10:53 69.6 °F 52.2 °F 30.2 in SE 2.9 mph 4 mph 54% 0 in 680 W/m2
10:58 69.8 °F 50.9 °F 30.2 in NNW 2 mph 4 mph 51% 0 in 691 W/m2
11:03 69.8 °F 50.9 °F 30.2 in North 2 mph 4 mph 51% 0 in 701 W/m2
11:08 70 °F 51.6 °F 30.2 in WSW 0.9 mph 4 mph 52% 0 in 707 W/m2
11:13 70.2 °F 50.2 °F 30.2 in ESE 2 mph 6 mph 49% 0 in 722 W/m2
11:18 70.2 °F 51.3 °F 30.2 in ENE 8.1 mph 10 mph 51% 0 in 731 W/m2
11:23 70.2 °F 50.7 °F 30.2 in East 6 mph 9 mph 50% 0 in 742 W/m2
11:28 70.5 °F 50.4 °F 30.2 in ESE 4 mph 4 mph 49% 0 in 752 W/m2
11:33 70.5 °F 50.9 °F 30.2 in NNW 2.9 mph 9 mph 50% 0 in 761 W/m2
11:38 71.1 °F 51.4 °F 30.2 in ENE 2.9 mph 7 mph 50% 0 in 772 W/m2
11:43 71.2 °F 51.1 °F 30.2 in NNW 2 mph 8 mph 49% 0 in 779 W/m2
11:48 71.8 °F 51.6 °F 30.2 in East 6 mph 8 mph 49% 0 in 788 W/m2
11:53 72 °F 52.3 °F 30.2 in ENE 2.9 mph 6 mph 50% 0 in 795 W/m2
11:58 71.8 °F 51.6 °F 30.2 in NW 2.9 mph 5 mph 49% 0 in 805 W/m2
12:03 72 °F 51.8 °F 30.2 in ESE 0.9 mph 3 mph 49% 0 in 810 W/m2
12:09 72.3 °F 50.9 °F 30.2 in WNW 2 mph 4 mph 47% 0 in 821 W/m2
12:14 72.7 °F 51.3 °F 30.2 in West 2.9 mph 5 mph 47% 0 in 823 W/m2
12:19 73 °F 51.6 °F 30.2 in North 2 mph 5 mph 47% 0 in 838 W/m2
12:24 73.6 °F 51.4 °F 30.2 in West 0.9 mph 3 mph 46% 0 in 844 W/m2
12:29 73.8 °F 50.5 °F 30.2 in West 0.9 mph 6 mph 44% 0 in 842 W/m2
12:34 73.6 °F 50.4 °F 30.2 in NW 2.9 mph 7 mph 44% 0 in 844 W/m2
12:39 73.6 °F 50.4 °F 30.2 in ESE 0.9 mph 7 mph 44% 0 in 858 W/m2
12:44 74.1 °F 51.4 °F 30.2 in ENE 0.9 mph 4 mph 45% 0 in 861 W/m2
12:49 74.7 °F 51.3 °F 30.2 in Calm   3 mph 44% 0 in 863 W/m2
12:54 74.7 °F 50 °F 30.2 in NW 2 mph 4 mph 42% 0 in 860 W/m2
12:59 74.7 °F 50 °F 30.2 in NNW 6 mph 8 mph 42% 0 in 872 W/m2
13:04 74.7 °F 49.5 °F 30.2 in West 2.9 mph 5 mph 41% 0 in 881 W/m2
13:09 74.1 °F 48.9 °F 30.2 in NW 2.9 mph 10 mph 41% 0 in 884 W/m2
13:14 74.5 °F 47.8 °F 30.2 in North 2.9 mph 5 mph 39% 0 in 882 W/m2
13:19 75 °F 47.7 °F 30.2 in ENE 2.9 mph 8 mph 38% 0 in 891 W/m2
13:24 75.4 °F 48 °F 30.2 in NE 6 mph 6 mph 38% 0 in 889 W/m2
13:29 75.7 °F 46.9 °F 30.2 in NE 2 mph 5 mph 36% 0 in 893 W/m2
13:34 75.9 °F 47.8 °F 30.2 in WSW 2.9 mph 4 mph 37% 0 in 889 W/m2
13:39 75.6 °F 47.5 °F 30.1 in West 2.9 mph 5 mph 37% 0 in 893 W/m2
13:44 75.4 °F 47.3 °F 30.1 in North 4.9 mph 8 mph 37% 0 in 896 W/m2
13:49 75.4 °F 45.9 °F 30.1 in West 4 mph 8 mph 35% 0 in 896 W/m2
13:54 75.4 °F 46.6 °F 30.1 in WSW 4.9 mph 7 mph 36% 0 in 898 W/m2
13:59 75.4 °F 47.3 °F 30.1 in WSW 2.9 mph 9 mph 37% 0 in 893 W/m2
14:04 75.7 °F 46.9 °F 30.1 in East 0.9 mph 4 mph 36% 0 in 898 W/m2
14:09 76.1 °F 45 °F 30.1 in NE 2 mph 8 mph 33% 0 in 905 W/m2
14:14 76.3 °F 42.6 °F 30.1 in ESE 0.9 mph 5 mph 30% 0 in 904 W/m2
14:19 76.5 °F 44.4 °F 30.1 in West 4 mph 8 mph 32% 0 in 895 W/m2
14:24 77 °F 46.4 °F 30.1 in SE 2.9 mph 6 mph 34% 0 in 888 W/m2
14:29 77.2 °F 46.6 °F 30.1 in North 2 mph 7 mph 34% 0 in 889 W/m2
14:34 77.2 °F 46.6 °F 30.1 in SE 2 mph 7 mph 34% 0 in 881 W/m2
14:39 77.5 °F 44.6 °F 30.1 in WNW 2.9 mph 4 mph 31% 0 in 877 W/m2
14:44 77.5 °F 45.3 °F 30.1 in ENE 2 mph 3 mph 32% 0 in 879 W/m2
Juneau County Weather
Compliments of Weather Underground - 4 mb